createdAt,value
2019-04-07T00:00:34.737Z,10.20
2019-04-07T00:03:06.912Z,10.20
2019-04-07T00:05:38.913Z,10.20
2019-04-07T00:08:11.149Z,10.20
2019-04-07T00:10:42.653Z,10.10
2019-04-07T00:13:14.246Z,10.10
2019-04-07T00:15:46.284Z,10.10
2019-04-07T00:18:17.978Z,10.10
2019-04-07T00:20:49.603Z,10.00
2019-04-07T00:23:21.381Z,10.00
2019-04-07T00:25:54.123Z,10.00
2019-04-07T00:28:25.620Z,10.00
2019-04-07T00:30:57.389Z,9.90
2019-04-07T00:33:28.914Z,10.00
2019-04-07T00:36:01.868Z,10.00
2019-04-07T00:38:35.978Z,9.90
2019-04-07T00:41:07.911Z,9.80
2019-04-07T00:43:39.673Z,9.90
2019-04-07T00:46:11.537Z,9.80
2019-04-07T00:48:44.953Z,9.80
2019-04-07T00:51:16.756Z,9.80
2019-04-07T00:53:48.514Z,9.70
2019-04-07T00:56:20.520Z,9.70
2019-04-07T00:58:52.407Z,9.70
2019-04-07T01:01:25.065Z,9.60
2019-04-07T01:03:56.851Z,9.60
2019-04-07T01:06:28.367Z,9.60
2019-04-07T01:09:00.276Z,9.60
2019-04-07T01:11:33.162Z,9.50
2019-04-07T01:14:04.871Z,9.50
2019-04-07T01:16:36.400Z,9.50
2019-04-07T01:19:07.929Z,9.50
2019-04-07T01:21:40.361Z,9.50
2019-04-07T01:24:12.302Z,9.50
2019-04-07T01:26:44.676Z,9.50
2019-04-07T01:29:16.825Z,9.50
2019-04-07T01:31:48.489Z,9.50
2019-04-07T01:34:20.631Z,9.50
2019-04-07T01:36:52.102Z,9.50
2019-04-07T01:39:24.100Z,9.60
2019-04-07T01:42:17.244Z,9.50
2019-04-07T01:45:07.282Z,9.40
2019-04-07T01:47:48.639Z,9.40
2019-04-07T01:50:54.443Z,9.40
2019-04-07T01:53:51.009Z,9.30
2019-04-07T01:56:48.147Z,9.20
2019-04-07T01:59:44.387Z,9.10
2019-04-07T02:02:39.176Z,9.10
2019-04-07T02:05:43.160Z,9.10
2019-04-07T02:08:37.422Z,9.00
2019-04-07T02:11:27.763Z,9.00
2019-04-07T02:14:18.249Z,8.90
2019-04-07T02:17:06.519Z,8.90
2019-04-07T02:19:46.006Z,8.90
2019-04-07T02:22:32.206Z,8.90
2019-04-07T02:25:22.830Z,8.90
2019-04-07T02:28:01.112Z,8.80
2019-04-07T02:31:00.796Z,8.80
2019-04-07T02:33:54.451Z,8.80
2019-04-07T02:36:40.727Z,8.80
2019-04-07T02:39:34.673Z,8.80
2019-04-07T02:42:25.055Z,8.80
2019-04-07T02:45:15.099Z,8.70
2019-04-07T02:48:12.523Z,8.70
2019-04-07T02:51:10.419Z,8.60
2019-04-07T02:54:03.759Z,8.60
2019-04-07T02:57:09.993Z,8.50
2019-04-07T03:00:01.077Z,8.50
2019-04-07T03:02:55.831Z,8.40
2019-04-07T03:05:56.437Z,8.40
2019-04-07T03:08:36.190Z,8.30
2019-04-07T03:11:26.515Z,8.30
2019-04-07T03:14:04.513Z,8.20
2019-04-07T03:17:08.789Z,8.10
2019-04-07T03:19:56.159Z,8.10
2019-04-07T03:22:38.473Z,8.10
2019-04-07T03:25:28.775Z,8.00
2019-04-07T03:28:17.391Z,8.00
2019-04-07T03:31:12.731Z,8.00
2019-04-07T03:33:52.290Z,8.00
2019-04-07T03:37:09.434Z,8.00
2019-04-07T03:39:31.724Z,7.90
2019-04-07T03:42:21.506Z,7.90
2019-04-07T03:45:08.286Z,7.90
2019-04-07T03:47:44.238Z,7.90
2019-04-07T03:50:31.595Z,7.90
2019-04-07T03:53:28.558Z,7.90
2019-04-07T03:56:10.162Z,7.90
2019-04-07T03:59:03.676Z,7.80
2019-04-07T04:01:54.303Z,7.80
2019-04-07T04:04:43.564Z,7.90
2019-04-07T04:07:30.709Z,7.90
2019-04-07T04:10:06.643Z,7.80
2019-04-07T04:12:51.207Z,7.80
2019-04-07T04:15:44.780Z,7.70
2019-04-07T04:18:16.305Z,7.70
2019-04-07T04:20:48.612Z,7.80
2019-04-07T04:23:20.099Z,7.70
2019-04-07T04:25:52.443Z,7.60
2019-04-07T04:28:24.271Z,7.70
2019-04-07T04:30:56.682Z,7.60
2019-04-07T04:33:28.290Z,7.60
2019-04-07T04:36:00.560Z,7.70
2019-04-07T04:38:32.349Z,7.60
2019-04-07T04:41:04.857Z,7.60
2019-04-07T04:43:36.532Z,7.60
2019-04-07T04:46:10.365Z,7.50
2019-04-07T04:48:41.140Z,7.50
2019-04-07T04:51:13.188Z,7.50
2019-04-07T04:53:45.676Z,7.50
2019-04-07T04:56:17.347Z,7.50
2019-04-07T04:58:50.656Z,7.60
2019-04-07T05:01:21.989Z,7.50
2019-04-07T05:03:53.936Z,7.50
2019-04-07T05:06:25.486Z,7.50
2019-04-07T05:08:57.720Z,7.50
2019-04-07T05:11:29.387Z,7.60
2019-04-07T05:14:00.894Z,7.60
2019-04-07T05:16:33.219Z,7.60
2019-04-07T05:19:04.951Z,7.50
2019-04-07T05:21:36.432Z,7.60
2019-04-07T05:24:07.903Z,7.60
2019-04-07T05:26:40.604Z,7.70
2019-04-07T05:29:12.105Z,7.70
2019-04-07T05:31:43.857Z,7.70
2019-04-07T05:34:18.869Z,7.70
2019-04-07T05:36:48.670Z,7.80
2019-04-07T05:39:20.773Z,7.90
2019-04-07T05:41:53.637Z,7.90
2019-04-07T05:44:25.030Z,7.90
2019-04-07T05:46:57.001Z,8.00
2019-04-07T05:49:28.565Z,8.10
2019-04-07T05:52:04.209Z,8.20
2019-04-07T05:54:33.990Z,8.20
2019-04-07T05:57:05.835Z,8.30
2019-04-07T05:59:37.670Z,8.40
2019-04-07T06:02:09.325Z,8.50
2019-04-07T06:04:41.539Z,8.60
2019-04-07T06:07:13.766Z,8.70
2019-04-07T06:09:51.249Z,8.80
2019-04-07T06:12:21.629Z,8.80
2019-04-07T06:14:53.201Z,8.90
2019-04-07T06:17:26.385Z,9.00
2019-04-07T06:19:57.938Z,9.00
2019-04-07T06:22:30.580Z,9.10
2019-04-07T06:25:05.280Z,9.20
2019-04-07T06:27:36.512Z,9.20
2019-04-07T06:30:10.791Z,9.30
2019-04-07T06:32:43.693Z,9.30
2019-04-07T06:35:15.929Z,9.40
2019-04-07T06:37:48.730Z,9.50
2019-04-07T06:40:21.315Z,9.60
2019-04-07T06:42:53.450Z,9.70
2019-04-07T06:45:29.396Z,9.80
2019-04-07T06:48:07.015Z,9.90
2019-04-07T06:50:57.891Z,9.90
2019-04-07T06:53:50.418Z,9.90
2019-04-07T06:56:33.432Z,10.00
2019-04-07T06:59:22.131Z,10.00
2019-04-07T07:02:12.094Z,10.10
2019-04-07T07:05:01.666Z,10.20
2019-04-07T07:07:57.520Z,10.30
2019-04-07T07:10:51.087Z,10.30
2019-04-07T07:13:33.364Z,10.40
2019-04-07T07:16:30.550Z,10.50
2019-04-07T07:19:19.806Z,10.60
2019-04-07T07:22:15.532Z,10.70
2019-04-07T07:24:46.794Z,10.80
2019-04-07T07:27:17.589Z,11.00
2019-04-07T07:29:52.508Z,11.10
2019-04-07T07:32:22.627Z,11.20
2019-04-07T07:34:55.199Z,11.20
2019-04-07T07:37:28.103Z,11.40
2019-04-07T07:39:59.709Z,11.50
2019-04-07T07:42:32.053Z,11.60
2019-04-07T07:45:03.746Z,11.70
2019-04-07T07:47:35.287Z,11.80
2019-04-07T07:50:08.178Z,11.90
2019-04-07T07:52:40.369Z,11.90
2019-04-07T07:55:12.074Z,12.10
2019-04-07T07:57:43.765Z,12.20
2019-04-07T08:00:16.975Z,12.30
2019-04-07T08:02:50.881Z,12.40
2019-04-07T08:05:23.880Z,12.60
2019-04-07T08:07:57.598Z,12.80
2019-04-07T08:10:29.149Z,12.90
2019-04-07T08:13:02.663Z,13.10
2019-04-07T08:15:35.072Z,13.20
2019-04-07T08:18:08.394Z,13.40
2019-04-07T08:20:40.910Z,13.40
2019-04-07T08:23:14.329Z,13.60
2019-04-07T08:25:46.104Z,13.70
2019-04-07T08:28:20.366Z,13.80
2019-04-07T08:30:52.190Z,13.90
2019-04-07T08:33:23.802Z,14.10
2019-04-07T08:35:56.203Z,14.20
2019-04-07T08:38:28.378Z,14.30
2019-04-07T08:41:00.171Z,14.40
2019-04-07T08:43:31.964Z,14.50
2019-04-07T08:46:04.693Z,14.60
2019-04-07T08:48:37.443Z,14.70
2019-04-07T08:51:08.960Z,14.80
2019-04-07T08:53:43.601Z,14.80
2019-04-07T08:56:13.782Z,14.90
2019-04-07T08:58:47.829Z,14.90
2019-04-07T09:01:21.024Z,15.00
2019-04-07T09:03:52.739Z,15.20
2019-04-07T09:06:25.566Z,15.30
2019-04-07T09:08:57.506Z,15.40
2019-04-07T09:11:29.295Z,15.50
2019-04-07T09:14:00.857Z,15.60
2019-04-07T09:16:54.258Z,15.70
2019-04-07T09:19:40.434Z,15.80
2019-04-07T09:22:20.095Z,15.90
2019-04-07T09:24:58.826Z,16.10
2019-04-07T09:27:38.760Z,16.10
2019-04-07T09:30:21.241Z,16.20
2019-04-07T09:33:10.394Z,16.30
2019-04-07T09:35:58.891Z,16.40
2019-04-07T09:38:42.380Z,16.50
2019-04-07T09:41:33.662Z,16.60
2019-04-07T09:44:33.989Z,16.70
2019-04-07T09:47:17.912Z,16.90
2019-04-07T09:50:09.111Z,17.00
2019-04-07T09:53:18.898Z,17.00
2019-04-07T09:56:16.180Z,17.10
2019-04-07T09:59:10.054Z,17.20
2019-04-07T10:02:06.001Z,17.40
2019-04-07T10:04:50.461Z,17.40
2019-04-07T10:07:46.878Z,17.60
2019-04-07T10:13:25.213Z,17.90
2019-04-07T10:16:08.878Z,18.00
2019-04-07T10:18:55.157Z,18.10
2019-04-07T10:21:55.132Z,18.20
2019-04-07T10:24:40.452Z,18.30
2019-04-07T10:27:46.465Z,18.40
2019-04-07T10:30:27.076Z,18.50
2019-04-07T10:33:24.390Z,18.60
2019-04-07T10:36:08.033Z,18.60
2019-04-07T10:38:52.673Z,18.70
2019-04-07T10:41:53.310Z,18.70
2019-04-07T10:44:35.825Z,18.80
2019-04-07T10:47:26.798Z,18.90
2019-04-07T10:50:36.851Z,18.90
2019-04-07T10:53:34.126Z,18.90
2019-04-07T10:56:19.915Z,18.90
2019-04-07T10:59:22.807Z,18.90
2019-04-07T11:02:04.201Z,18.90
2019-04-07T11:04:53.328Z,18.80
2019-04-07T11:07:40.483Z,18.80
2019-04-07T11:10:34.279Z,18.90
2019-04-07T11:13:28.994Z,18.90
2019-04-07T11:16:22.391Z,18.90
2019-04-07T11:19:22.013Z,19.00
2019-04-07T11:22:04.548Z,19.00
2019-04-07T11:24:43.380Z,19.10
2019-04-07T11:27:52.833Z,19.10
2019-04-07T11:30:49.901Z,19.10
2019-04-07T11:33:46.061Z,19.00
2019-04-07T11:36:48.737Z,19.00
2019-04-07T11:39:30.740Z,19.10
2019-04-07T11:42:30.647Z,19.20
2019-04-07T11:45:20.660Z,19.30
2019-04-07T11:48:02.441Z,19.40
2019-04-07T11:51:03.230Z,19.40
2019-04-07T11:53:53.751Z,19.50
2019-04-07T11:56:37.223Z,19.60
2019-04-07T11:59:32.974Z,19.70
2019-04-07T12:02:22.856Z,19.70
2019-04-07T12:05:18.763Z,19.70
2019-04-07T12:08:01.809Z,19.60
2019-04-07T12:10:58.589Z,19.60
2019-04-07T12:13:42.878Z,19.50
2019-04-07T12:16:50.603Z,19.60
2019-04-07T12:19:33.385Z,19.70
2019-04-07T12:22:22.814Z,19.80
2019-04-07T12:25:23.261Z,19.80
2019-04-07T12:28:18.135Z,19.80
2019-04-07T12:31:02.597Z,19.70
2019-04-07T12:34:02.887Z,19.90
2019-04-07T12:36:56.242Z,20.00
2019-04-07T12:39:50.949Z,20.10
2019-04-07T12:42:40.676Z,20.00
2019-04-07T12:45:31.903Z,20.00
2019-04-07T12:48:19.975Z,20.10
2019-04-07T12:51:22.427Z,20.10
2019-04-07T12:54:23.323Z,20.10
2019-04-07T12:57:23.079Z,20.10
2019-04-07T13:00:13.575Z,20.10
2019-04-07T13:03:04.556Z,20.10
2019-04-07T13:06:07.612Z,20.20
2019-04-07T13:08:57.174Z,20.30
2019-04-07T13:11:45.716Z,20.10
2019-04-07T13:14:40.983Z,20.20
2019-04-07T13:17:35.488Z,20.20
2019-04-07T13:20:36.563Z,20.20
2019-04-07T13:23:18.727Z,20.20
2019-04-07T13:26:02.120Z,20.20
2019-04-07T13:28:58.745Z,20.20
2019-04-07T13:31:42.789Z,20.00
2019-04-07T13:34:45.290Z,20.10
2019-04-07T13:37:42.377Z,20.20
2019-04-07T13:40:21.822Z,20.30
2019-04-07T13:43:04.330Z,20.30
2019-04-07T13:45:54.509Z,20.40
2019-04-07T13:48:49.536Z,20.40
2019-04-07T13:51:37.048Z,20.60
2019-04-07T13:54:23.002Z,20.60
2019-04-07T13:57:26.118Z,20.50
2019-04-07T14:00:28.780Z,20.40
2019-04-07T14:03:10.143Z,20.60
2019-04-07T14:06:01.192Z,20.70
2019-04-07T14:08:53.474Z,20.80
2019-04-07T14:12:04.225Z,20.90
2019-04-07T14:15:04.092Z,20.50
2019-04-07T14:18:06.616Z,20.30
2019-04-07T14:20:47.475Z,20.20
2019-04-07T14:23:47.070Z,20.20
2019-04-07T14:26:36.550Z,20.30
2019-04-07T14:29:33.943Z,20.40
2019-04-07T14:32:31.291Z,20.40
2019-04-07T14:35:12.974Z,20.30
2019-04-07T14:38:09.953Z,20.20
2019-04-07T14:41:09.753Z,20.10
2019-04-07T14:44:00.424Z,20.10
2019-04-07T14:46:54.129Z,20.10
2019-04-07T14:49:35.847Z,20.20
2019-04-07T14:52:39.397Z,20.30
2019-04-07T14:55:31.157Z,20.20
2019-04-07T14:58:21.679Z,19.90
2019-04-07T15:01:04.747Z,19.90
2019-04-07T15:03:33.814Z,19.90
2019-04-07T15:06:06.584Z,19.80
2019-04-07T15:08:49.805Z,19.80
2019-04-07T15:11:31.325Z,19.80
2019-04-07T15:14:04.194Z,19.90
2019-04-07T15:16:36.678Z,19.90
2019-04-07T15:19:08.480Z,20.10
2019-04-07T15:21:40.155Z,20.10
2019-04-07T15:24:11.959Z,20.10
2019-04-07T15:26:46.965Z,20.00
2019-04-07T15:29:16.627Z,19.90
2019-04-07T15:31:50.825Z,19.80
2019-04-07T15:34:21.228Z,19.80
2019-04-07T15:36:52.759Z,19.80
2019-04-07T15:39:27.915Z,19.80
2019-04-07T15:41:57.748Z,19.90
2019-04-07T15:44:29.222Z,19.90
2019-04-07T15:47:00.637Z,19.90
2019-04-07T15:49:32.194Z,20.00
2019-04-07T15:52:07.668Z,19.90
2019-04-07T15:54:37.152Z,19.90
2019-04-07T15:57:08.931Z,19.90
2019-04-07T15:59:42.390Z,19.90
2019-04-07T16:02:14.223Z,20.00
2019-04-07T16:04:52.971Z,19.90
2019-04-07T16:07:24.571Z,20.00
2019-04-07T16:09:57.016Z,20.10
2019-04-07T16:12:30.913Z,20.10
2019-04-07T16:15:02.709Z,20.10
2019-04-07T16:17:34.873Z,20.10
2019-04-07T16:20:20.663Z,20.00
2019-04-07T16:22:46.588Z,19.90
2019-04-07T16:25:25.407Z,19.90
2019-04-07T16:27:54.862Z,19.90
2019-04-07T16:30:26.568Z,19.70
2019-04-07T16:33:03.934Z,19.60
2019-04-07T16:35:34.559Z,19.40
2019-04-07T16:38:07.392Z,19.30
2019-04-07T16:40:41.937Z,19.10
2019-04-07T16:43:15.410Z,19.00
2019-04-07T16:45:47.177Z,18.90
2019-04-07T16:48:19.678Z,18.80
2019-04-07T16:50:54.747Z,18.60
2019-04-07T16:53:24.813Z,18.40
2019-04-07T16:55:57.479Z,18.30
2019-04-07T16:58:33.166Z,18.30
2019-04-07T17:01:12.089Z,18.20
2019-04-07T17:03:44.252Z,18.20
2019-04-07T17:06:16.002Z,18.20
2019-04-07T17:08:51.154Z,18.10
2019-04-07T17:11:21.364Z,18.10
2019-04-07T17:13:54.627Z,18.10
2019-04-07T17:16:26.879Z,18.10
2019-04-07T17:19:00.968Z,18.00
2019-04-07T17:21:37.677Z,17.90
2019-04-07T17:24:09.147Z,17.80
2019-04-07T17:26:41.529Z,17.80
2019-04-07T17:29:20.209Z,17.70
2019-04-07T17:31:52.191Z,17.60
2019-04-07T17:34:24.071Z,17.60
2019-04-07T17:36:57.665Z,17.40
2019-04-07T17:39:48.400Z,17.40
2019-04-07T17:42:25.919Z,17.30
2019-04-07T17:45:13.663Z,17.10
2019-04-07T17:48:06.882Z,17.00
2019-04-07T17:51:07.324Z,16.90
2019-04-07T17:54:04.734Z,16.80
2019-04-07T17:57:10.638Z,16.80
2019-04-07T17:59:58.282Z,16.70
2019-04-07T18:03:09.864Z,16.60
2019-04-07T18:06:17.277Z,16.40
2019-04-07T18:09:07.881Z,16.30
2019-04-07T18:12:03.081Z,16.20
2019-04-07T18:14:56.946Z,16.10
2019-04-07T18:17:49.594Z,16.00
2019-04-07T18:20:40.483Z,15.90
2019-04-07T18:23:42.826Z,15.80
2019-04-07T18:26:28.566Z,15.70
2019-04-07T18:29:10.151Z,15.60
2019-04-07T18:31:57.860Z,15.50
2019-04-07T18:34:46.367Z,15.50
2019-04-07T18:37:38.529Z,15.40
2019-04-07T18:40:27.188Z,15.40
2019-04-07T18:43:24.536Z,15.30
2019-04-07T18:46:13.011Z,15.20
2019-04-07T18:49:04.734Z,15.10
2019-04-07T18:52:09.972Z,15.00
2019-04-07T18:54:51.591Z,14.90
2019-04-07T18:57:33.442Z,14.90
2019-04-07T19:00:31.624Z,14.80
2019-04-07T19:03:22.907Z,14.80
2019-04-07T19:06:12.780Z,14.70
2019-04-07T19:09:16.682Z,14.60
2019-04-07T19:12:13.274Z,14.60
2019-04-07T19:15:08.798Z,14.50
2019-04-07T19:18:06.880Z,14.40
2019-04-07T19:20:53.649Z,14.40
2019-04-07T19:23:45.131Z,14.30
2019-04-07T19:26:52.241Z,14.30
2019-04-07T19:29:53.211Z,14.30
2019-04-07T19:32:42.648Z,14.20
2019-04-07T19:35:43.334Z,14.10
2019-04-07T19:38:51.158Z,14.10
2019-04-07T19:41:38.186Z,14.00
2019-04-07T19:44:40.010Z,13.90
2019-04-07T19:47:20.538Z,13.90
2019-04-07T19:50:05.252Z,13.80
2019-04-07T19:52:54.328Z,13.80
2019-04-07T19:55:56.292Z,13.70
2019-04-07T19:58:47.056Z,13.60
2019-04-07T20:01:44.408Z,13.60
2019-04-07T20:04:35.326Z,13.50
2019-04-07T20:07:15.866Z,13.40
2019-04-07T20:09:56.808Z,13.30
2019-04-07T20:12:58.372Z,13.30
2019-04-07T20:15:42.977Z,13.30
2019-04-07T20:18:25.521Z,13.20
2019-04-07T20:21:13.195Z,13.20
2019-04-07T20:24:11.062Z,13.10
2019-04-07T20:26:52.272Z,13.10
2019-04-07T20:29:43.524Z,13.00
2019-04-07T20:32:39.884Z,12.90
2019-04-07T20:35:31.982Z,12.90
2019-04-07T20:38:27.318Z,12.80
2019-04-07T20:41:33.731Z,12.70
2019-04-07T20:44:18.878Z,12.70
2019-04-07T20:47:21.478Z,12.60
2019-04-07T20:50:22.544Z,12.60
2019-04-07T20:53:32.750Z,12.50
2019-04-07T20:56:27.203Z,12.50
2019-04-07T20:59:08.654Z,12.50
2019-04-07T21:02:19.155Z,12.50
2019-04-07T21:05:09.058Z,12.40
2019-04-07T21:08:00.738Z,12.40
2019-04-07T21:11:07.466Z,12.40
2019-04-07T21:13:59.447Z,12.30
2019-04-07T21:16:53.092Z,12.30
2019-04-07T21:19:44.342Z,12.20
2019-04-07T21:22:43.233Z,12.20
2019-04-07T21:25:33.900Z,12.20
2019-04-07T21:28:28.805Z,12.10
2019-04-07T21:31:19.997Z,12.10
2019-04-07T21:34:03.412Z,12.00
2019-04-07T21:36:59.328Z,12.00
2019-04-07T21:39:39.597Z,11.90
2019-04-07T21:42:27.452Z,11.90
2019-04-07T21:45:32.684Z,11.90
2019-04-07T21:48:10.068Z,11.80
2019-04-07T21:50:51.871Z,11.70
2019-04-07T21:53:43.147Z,11.70
2019-04-07T21:56:23.546Z,11.70
2019-04-07T21:59:05.425Z,11.60
2019-04-07T22:02:00.838Z,11.70
2019-04-07T22:04:57.365Z,11.60
2019-04-07T22:07:35.590Z,11.50
2019-04-07T22:10:09.439Z,11.50
2019-04-07T22:12:41.037Z,11.50
2019-04-07T22:15:14.194Z,11.40
2019-04-07T22:17:46.269Z,11.40
2019-04-07T22:20:20.094Z,11.40
2019-04-07T22:22:51.322Z,11.40
2019-04-07T22:25:32.627Z,11.30
2019-04-07T22:28:04.072Z,11.30
2019-04-07T22:30:39.921Z,11.30
2019-04-07T22:33:10.419Z,11.20
2019-04-07T22:35:44.073Z,11.20
2019-04-07T22:38:17.244Z,11.10
2019-04-07T22:40:48.284Z,11.10
2019-04-07T22:43:20.292Z,11.00
2019-04-07T22:45:59.289Z,10.90
2019-04-07T22:48:27.834Z,10.90
2019-04-07T22:50:59.201Z,10.80
2019-04-07T22:53:31.400Z,10.70
2019-04-07T22:56:06.369Z,10.60
2019-04-07T22:58:36.203Z,10.50
2019-04-07T23:01:07.747Z,10.50
2019-04-07T23:03:39.258Z,10.40
2019-04-07T23:06:10.792Z,10.30
2019-04-07T23:08:43.213Z,10.30
2019-04-07T23:11:14.722Z,10.30
2019-04-07T23:13:47.193Z,10.20
2019-04-07T23:16:19.001Z,10.20
2019-04-07T23:18:52.107Z,10.10
2019-04-07T23:21:24.771Z,10.10
2019-04-07T23:23:56.193Z,10.10
2019-04-07T23:26:27.600Z,10.00
2019-04-07T23:28:59.025Z,10.00
2019-04-07T23:31:32.155Z,10.00
2019-04-07T23:34:04.681Z,10.00
2019-04-07T23:36:36.216Z,10.00
2019-04-07T23:39:08.728Z,10.00
2019-04-07T23:41:40.089Z,9.90
2019-04-07T23:44:11.533Z,9.90
2019-04-07T23:46:43.533Z,9.90
2019-04-07T23:49:15.234Z,9.90
2019-04-07T23:51:47.582Z,9.90
2019-04-07T23:54:19.024Z,9.80
2019-04-07T23:56:50.411Z,9.80
2019-04-07T23:59:22.750Z,9.80
